Matagami Airport
CYNM : now visible

Airfield :











YOU CAN JOIN US ON...

 
LOGIN :

Register | Disclaimer

   EN    FR    IT 

 









Legend :    VFR   Marginal VFR   IFR   Intensive IFR   Very Intensive IFR
Visi :
Ceiling :
>= 8 km
>= 3000ft
5 to 8 km
1000 to 3000 ft
1500m to 5 km
500 to 1000 ft
800 to 1500m
200 to 500 ft
< 800m
< 200 ft
Symbols :   Thunderstorms  Fog  Heavy snow  Heavy precipitations  Wind > 20 kt






- Airport Elevation : 918 ft
- IATA code : YNM


CYNM - Matagami

CURRENT METAR :
  • 280300Z AUTO 18006KT 9SM SCT090 BKN120 BKN160 18/18 A2988 RMK SLP119 DENSITY ALT 1500FT

EXPIRED METARs :
  • 280200Z AUTO 17003KT 9SM BKN110 OVC140 19/18 A2987 RMK LTNG DIST SE SLP117 DENSITY ALT 1500FT
  • 280100Z AUTO 16004KT 9SM BKN110 OVC140 19/18 A2986 RMK LTNG DIST S SLP116 DENSITY ALT 1600FT
  • 280035Z AUTO 16003KT 090V200 9SM BKN120 OVC140 19/18 A2988 RMK LTNG DIST SE S SLP121 DENSITY ALT 1600FT

TAF N/A
CZUL FIR / North America



MET'MAP, your aeronautical weather chart ! - Copyright ORBIFLY December 2007 - Disclaimer

ORBIFLY MET'MAP TEAM :

Programming & Development : Alexandra Zaïnal
Concept & original design : Baudouin d'Aumeries
Assistance for programming : Marc-Olivier Méhu
Technical & hardware support : Manuel Goepfert

Contact : metmap@orbifly.com




SOURCES & CREDITS :

   NOAA       Earth
Advisory